Time;durP1;ratioP1;P1;durP2;ratioP2;P2;SDS_P1;SDS_P2;PMS_P1;PMS_P2;Temp;Humidity;BMP_temperature;BMP_pressure;BME280_temperature;BME280_humidity;BME280_pressure;Samples;Min_cycle;Max_cycle;Signal;HPM_P1;HPM_P2
2021/12/23 00:02:00;;;;;;;21.98;12.20;;;-1.00;99.90;;;;;;5040722;28;20545;-71
2021/12/23 00:04:26;;;;;;;19.33;12.30;;;-1.00;99.90;;;;;;5089005;28;20055;-72
2021/12/23 00:06:52;;;;;;;21.95;12.70;;;-1.00;99.90;;;;;;5058223;28;20048;-72
2021/12/23 00:09:18;;;;;;;22.23;13.23;;;-1.00;99.90;;;;;;5088962;28;20083;-71
2021/12/23 00:11:44;;;;;;;22.48;11.98;;;-1.00;99.90;;;;;;5040658;28;20056;-71
2021/12/23 00:14:11;;;;;;;19.02;11.50;;;-0.50;99.90;;;;;;5090698;28;20053;-71
2021/12/23 00:24:40;;;;;;;21.13;11.98;;;-1.00;99.90;;;;;;5090390;28;20048;-71
2021/12/23 00:27:08;;;;;;;22.02;12.68;;;-1.00;99.90;;;;;;5057075;28;20057;-70
2021/12/23 00:29:34;;;;;;;20.40;12.20;;;-0.90;99.90;;;;;;5037209;28;20046;-71
2021/12/23 00:32:02;;;;;;;23.55;12.27;;;-1.00;99.90;;;;;;5054286;28;20044;-71
2021/12/23 00:34:27;;;;;;;22.55;12.32;;;-0.90;99.90;;;;;;5034845;28;20049;-71
2021/12/23 00:36:55;;;;;;;21.13;11.90;;;-0.90;99.90;;;;;;5037194;28;20079;-71
2021/12/23 00:39:20;;;;;;;21.15;12.30;;;-0.90;99.90;;;;;;5035634;28;20053;-70
2021/12/23 00:41:46;;;;;;;18.20;10.88;;;-0.90;99.90;;;;;;5054047;28;20064;-70
2021/12/23 00:44:13;;;;;;;21.52;12.40;;;-0.90;99.90;;;;;;5020359;28;20061;-71
2021/12/23 00:46:40;;;;;;;24.27;11.93;;;-0.90;99.90;;;;;;5069207;28;20410;-71
2021/12/23 00:49:06;;;;;;;21.73;12.38;;;-0.90;99.90;;;;;;5037241;28;20536;-71
2021/12/23 00:51:33;;;;;;;19.83;11.68;;;-0.90;99.90;;;;;;5067750;28;20041;-71
2021/12/23 00:54:04;;;;;;;21.92;11.98;;;-0.90;99.90;;;;;;5021219;28;20133;-71
2021/12/23 00:56:37;;;;;;;19.17;11.55;;;-1.00;99.90;;;;;;5035383;28;20046;-71
2021/12/23 00:59:09;;;;;;;19.05;11.55;;;-0.90;99.90;;;;;;5020433;28;20053;-71
2021/12/23 01:01:35;;;;;;;22.33;11.68;;;-0.70;99.90;;;;;;5070593;28;20053;-71
2021/12/23 01:04:01;;;;;;;21.90;11.75;;;-1.00;99.90;;;;;;5068370;28;20049;-71
2021/12/23 01:06:27;;;;;;;20.50;12.27;;;-1.00;99.90;;;;;;5037650;28;20080;-71
2021/12/23 01:08:53;;;;;;;20.45;11.90;;;-1.00;99.90;;;;;;5050918;28;20077;-71
2021/12/23 01:11:18;;;;;;;20.02;10.93;;;-1.00;99.90;;;;;;5020939;28;20099;-71
2021/12/23 01:13:59;;;;;;;21.63;11.77;;;-0.90;99.90;;;;;;5018369;28;20576;-70
2021/12/23 01:16:48;;;;;;;24.60;12.43;;;-0.90;99.90;;;;;;5037015;28;20046;-71
2021/12/23 01:19:13;;;;;;;21.17;12.00;;;-0.80;99.90;;;;;;5037232;28;20052;-71
2021/12/23 01:21:39;;;;;;;18.35;11.57;;;-0.80;99.90;;;;;;5034023;28;20067;-71
2021/12/23 01:24:08;;;;;;;22.58;12.43;;;-0.80;99.90;;;;;;5054096;28;20080;-71
2021/12/23 01:26:34;;;;;;;20.05;11.30;;;-0.80;99.90;;;;;;5036893;28;20041;-70
2021/12/23 01:29:00;;;;;;;19.42;11.43;;;-0.80;99.90;;;;;;5037789;28;20165;-71
2021/12/23 01:31:29;;;;;;;18.65;10.52;;;-0.80;99.90;;;;;;5036856;28;20037;-71
2021/12/23 01:33:56;;;;;;;21.23;11.35;;;-0.80;99.90;;;;;;5036016;28;20045;-71
2021/12/23 01:36:22;;;;;;;20.35;11.70;;;-0.70;99.90;;;;;;5070914;28;20045;-71
2021/12/23 01:38:49;;;;;;;20.15;11.73;;;-0.70;99.90;;;;;;5067294;28;20092;-71
2021/12/23 01:41:15;;;;;;;20.67;10.88;;;-0.70;99.90;;;;;;5037431;28;20073;-71
2021/12/23 01:43:41;;;;;;;20.60;12.00;;;-0.70;99.90;;;;;;5036596;28;20064;-70
2021/12/23 01:46:06;;;;;;;20.08;10.60;;;-0.60;99.90;;;;;;5036141;28;20115;-71
2021/12/23 01:48:32;;;;;;;20.95;11.30;;;-0.60;99.90;;;;;;5036694;28;20072;-70
2021/12/23 01:50:58;;;;;;;19.70;10.70;;;-0.70;99.90;;;;;;5017240;28;20037;-71
2021/12/23 01:53:24;;;;;;;20.45;11.23;;;-0.70;99.90;;;;;;5020285;28;20096;-71
2021/12/23 01:55:50;;;;;;;21.08;11.40;;;-0.10;99.90;;;;;;5033681;28;20112;-70
2021/12/23 01:58:18;;;;;;;19.42;11.05;;;-0.60;99.90;;;;;;5036942;28;20041;-71
2021/12/23 02:00:47;;;;;;;18.95;10.75;;;-0.70;99.90;;;;;;5037875;28;20056;-71
2021/12/23 02:03:13;;;;;;;22.50;11.95;;;-0.60;99.90;;;;;;5073230;28;20390;-71
2021/12/23 02:05:39;;;;;;;19.70;10.77;;;-0.70;99.90;;;;;;5040008;28;20130;-71
2021/12/23 02:08:06;;;;;;;19.13;12.20;;;-0.80;99.90;;;;;;5021562;28;20046;-71
2021/12/23 02:10:31;;;;;;;20.58;11.20;;;-0.80;99.90;;;;;;5057151;28;20048;-71
2021/12/23 02:12:57;;;;;;;17.98;10.55;;;-0.80;99.90;;;;;;5021045;28;20045;-71
2021/12/23 02:15:24;;;;;;;22.38;11.95;;;-0.80;99.90;;;;;;5023815;28;20041;-71
2021/12/23 02:17:50;;;;;;;19.45;11.45;;;-0.70;99.90;;;;;;5039411;28;20061;-71
2021/12/23 02:20:22;;;;;;;19.42;11.60;;;-0.70;99.90;;;;;;5072515;28;20057;-71
2021/12/23 02:22:48;;;;;;;18.33;10.07;;;-0.70;99.90;;;;;;5041260;28;20050;-71
2021/12/23 02:25:15;;;;;;;19.80;11.73;;;-0.30;99.90;;;;;;5070624;28;20164;-71
2021/12/23 02:27:42;;;;;;;20.27;10.93;;;-0.70;99.90;;;;;;5023241;28;20045;-71
2021/12/23 02:30:13;;;;;;;19.35;11.52;;;-0.70;99.90;;;;;;5036917;28;20053;-71
2021/12/23 02:32:39;;;;;;;19.08;11.65;;;-0.70;99.90;;;;;;5073493;28;20090;-71
2021/12/23 02:35:10;;;;;;;22.45;11.73;;;-0.80;99.90;;;;;;5039611;28;20378;-71
2021/12/23 02:37:36;;;;;;;22.98;12.18;;;-0.80;99.90;;;;;;5055477;28;20046;-71
2021/12/23 02:40:03;;;;;;;21.85;12.07;;;-0.80;99.90;;;;;;5039743;28;20046;-71
2021/12/23 02:42:28;;;;;;;19.08;12.25;;;-0.80;99.90;;;;;;5038777;28;20412;-71
2021/12/23 02:44:54;;;;;;;19.50;11.77;;;-0.90;99.90;;;;;;5039857;28;20065;-71
2021/12/23 02:47:20;;;;;;;18.08;11.18;;;-0.70;99.90;;;;;;5037033;28;20046;-71
2021/12/23 02:49:46;;;;;;;20.42;12.38;;;-1.00;99.90;;;;;;5056048;28;20073;-71
2021/12/23 02:52:12;;;;;;;20.50;12.05;;;-1.00;99.90;;;;;;5071128;28;20049;-70
2021/12/23 02:54:37;;;;;;;19.52;12.32;;;-0.90;99.90;;;;;;5072195;28;20108;-71
2021/12/23 02:57:04;;;;;;;23.55;11.65;;;-1.00;99.90;;;;;;5039399;28;20064;-71
2021/12/23 02:59:29;;;;;;;19.83;11.45;;;-1.00;99.90;;;;;;5037431;28;20041;-72
2021/12/23 03:01:55;;;;;;;20.00;11.75;;;-1.00;99.90;;;;;;5039540;28;20046;-71
2021/12/23 03:04:21;;;;;;;19.08;10.50;;;-1.00;99.90;;;;;;5036820;28;20528;-71
2021/12/23 03:06:47;;;;;;;18.27;10.98;;;-0.90;99.90;;;;;;5039098;28;20045;-71
2021/12/23 03:09:13;;;;;;;20.63;11.57;;;-0.90;99.90;;;;;;5036682;28;20045;-71
2021/12/23 03:11:40;;;;;;;20.85;11.50;;;-0.90;99.90;;;;;;5038828;28;20583;-72
2021/12/23 03:14:07;;;;;;;22.88;12.02;;;-0.80;99.90;;;;;;5039748;28;20113;-71
2021/12/23 03:16:36;;;;;;;22.05;11.10;;;-0.80;99.90;;;;;;5070647;28;20073;-72
2021/12/23 03:19:03;;;;;;;16.60;10.55;;;-0.80;99.90;;;;;;5055797;28;20409;-72
2021/12/23 03:21:28;;;;;;;17.58;10.40;;;-0.80;99.90;;;;;;5035847;28;20056;-71
2021/12/23 03:23:54;;;;;;;21.50;10.77;;;-0.90;99.90;;;;;;5055544;28;20140;-71
2021/12/23 03:26:20;;;;;;;24.05;11.93;;;-0.90;99.90;;;;;;5036744;28;20053;-71
2021/12/23 03:28:47;;;;;;;19.50;11.85;;;-0.10;99.90;;;;;;5038616;28;20055;-72
2021/12/23 03:31:13;;;;;;;22.42;12.77;;;-0.90;99.90;;;;;;5039577;28;20048;-72
2021/12/23 03:33:39;;;;;;;20.63;11.50;;;-0.90;99.90;;;;;;5070123;28;20612;-72
2021/12/23 03:36:05;;;;;;;19.17;10.82;;;0.40;99.90;;;;;;5022535;28;20115;-71
2021/12/23 03:38:31;;;;;;;21.60;11.30;;;-0.90;99.90;;;;;;5069346;28;20049;-71
2021/12/23 03:40:57;;;;;;;24.63;12.10;;;-0.90;99.90;;;;;;5040245;28;20052;-71
2021/12/23 03:43:23;;;;;;;25.73;13.30;;;-0.90;99.90;;;;;;5052837;28;20080;-71
2021/12/23 03:45:50;;;;;;;22.60;12.23;;;-0.90;99.90;;;;;;5037810;28;20037;-71
2021/12/23 03:48:17;;;;;;;20.70;12.32;;;-0.90;99.90;;;;;;5070622;28;20111;-71
2021/12/23 03:50:44;;;;;;;22.77;12.00;;;-0.90;99.90;;;;;;5069726;28;20053;-71
2021/12/23 03:53:10;;;;;;;23.40;11.80;;;-0.80;99.90;;;;;;5054812;28;20128;-71
2021/12/23 03:55:35;;;;;;;20.73;11.35;;;-0.80;99.90;;;;;;5019479;28;20162;-71
2021/12/23 03:58:01;;;;;;;20.63;11.50;;;-0.80;99.90;;;;;;5038645;28;20109;-71
2021/12/23 04:00:27;;;;;;;26.23;12.27;;;-0.80;99.90;;;;;;5037026;28;20054;-71
2021/12/23 04:02:54;;;;;;;25.02;12.82;;;-0.70;99.90;;;;;;5071948;28;20037;-71
2021/12/23 04:05:21;;;;;;;24.23;13.32;;;-0.70;99.90;;;;;;5038379;28;20053;-70
2021/12/23 04:07:47;;;;;;;23.30;11.93;;;-0.70;99.90;;;;;;5070077;28;20075;-70
2021/12/23 04:10:16;;;;;;;22.25;11.98;;;-0.70;99.90;;;;;;5054595;28;20045;-71
2021/12/23 04:12:42;;;;;;;20.10;11.13;;;-0.60;99.90;;;;;;5035396;28;20045;-71
2021/12/23 04:15:08;;;;;;;17.27;9.98;;;-0.60;99.90;;;;;;5039790;28;20084;-71
2021/12/23 04:17:34;;;;;;;22.80;11.85;;;-0.60;99.90;;;;;;5035629;28;20041;-71
2021/12/23 04:20:14;;;;;;;18.00;11.50;;;-0.60;99.90;;;;;;5070766;28;20033;-71
2021/12/23 04:22:44;;;;;;;21.40;11.48;;;-0.60;99.90;;;;;;5036548;28;20050;-71
2021/12/23 04:25:11;;;;;;;20.08;11.75;;;-0.60;99.90;;;;;;5035188;28;20057;-71
2021/12/23 04:27:37;;;;;;;19.92;11.82;;;-0.60;99.90;;;;;;5037784;28;20052;-70
2021/12/23 04:30:07;;;;;;;19.60;11.07;;;-0.60;99.90;;;;;;5035335;28;20457;-71
2021/12/23 04:32:33;;;;;;;22.58;11.52;;;-0.70;99.90;;;;;;5037994;28;20137;-71
2021/12/23 04:34:59;;;;;;;21.98;11.88;;;-0.60;99.90;;;;;;5035468;28;20045;-71
2021/12/23 04:37:25;;;;;;;22.10;11.98;;;-0.70;99.90;;;;;;5069395;28;20052;-71
2021/12/23 04:39:51;;;;;;;20.27;11.63;;;-0.60;99.90;;;;;;5036204;28;20128;-71
2021/12/23 04:42:17;;;;;;;19.30;11.63;;;0.70;99.90;;;;;;5036036;28;20110;-71
2021/12/23 04:44:42;;;;;;;19.77;11.02;;;-0.10;99.90;;;;;;5037454;28;20047;-71
2021/12/23 04:47:08;;;;;;;22.20;11.70;;;-0.60;99.90;;;;;;5068686;28;20049;-71
2021/12/23 04:49:34;;;;;;;19.85;11.98;;;-0.30;99.90;;;;;;5054049;28;20038;-71
2021/12/23 04:52:00;;;;;;;21.75;11.20;;;-0.60;99.90;;;;;;5036842;28;20062;-71
2021/12/23 04:54:25;;;;;;;20.67;12.05;;;-0.60;99.90;;;;;;5038423;28;20512;-71
2021/12/23 04:56:51;;;;;;;21.40;11.70;;;-0.60;99.90;;;;;;5036606;28;20096;-71
2021/12/23 04:59:17;;;;;;;22.70;11.82;;;-0.50;99.90;;;;;;5069161;28;20450;-71
2021/12/23 05:01:43;;;;;;;19.40;11.45;;;-0.50;99.90;;;;;;5053557;28;20091;-71
2021/12/23 05:04:09;;;;;;;19.70;11.32;;;-0.40;99.90;;;;;;5034717;28;20041;-71
2021/12/23 05:06:35;;;;;;;18.05;11.23;;;-0.60;99.90;;;;;;5039074;28;20037;-71
2021/12/23 05:09:00;;;;;;;23.65;12.93;;;-0.50;99.90;;;;;;5034704;28;20045;-72
2021/12/23 05:11:26;;;;;;;19.02;11.38;;;-0.50;99.90;;;;;;5054042;28;20053;-71
2021/12/23 05:13:52;;;;;;;20.98;11.20;;;-0.50;99.90;;;;;;5019718;28;20486;-71
2021/12/23 05:16:18;;;;;;;23.42;13.10;;;-0.60;99.90;;;;;;5052680;28;20045;-71
2021/12/23 05:18:45;;;;;;;21.00;11.93;;;-0.50;99.90;;;;;;5036803;28;20051;-71
2021/12/23 05:21:11;;;;;;;22.77;12.38;;;1.20;99.90;;;;;;5067871;28;20405;-71
2021/12/23 05:23:36;;;;;;;21.23;12.13;;;-0.50;99.90;;;;;;5038589;28;20053;-71
2021/12/23 05:26:06;;;;;;;21.30;12.65;;;-0.50;99.90;;;;;;5068252;28;20096;-71
2021/12/23 05:28:32;;;;;;;21.42;11.05;;;-1.00;99.90;;;;;;5037248;28;20042;-72
2021/12/23 05:30:59;;;;;;;18.70;11.85;;;-0.60;99.90;;;;;;5052493;28;20049;-71
2021/12/23 05:33:25;;;;;;;22.50;11.95;;;-0.50;99.90;;;;;;5052040;28;20123;-71
2021/12/23 05:35:51;;;;;;;20.95;12.70;;;-0.50;99.90;;;;;;5055832;28;20086;-71
2021/12/23 05:38:16;;;;;;;23.30;13.05;;;-0.60;99.90;;;;;;5039591;28;20516;-71
2021/12/23 05:40:42;;;;;;;21.55;10.98;;;-0.60;99.90;;;;;;5041927;28;20045;-71
2021/12/23 05:43:08;;;;;;;22.38;12.52;;;-1.00;99.90;;;;;;5037935;28;20049;-71
2021/12/23 05:45:34;;;;;;;19.50;11.00;;;-1.00;99.90;;;;;;5074675;28;20053;-71
2021/12/23 05:47:59;;;;;;;21.05;11.52;;;-0.60;99.90;;;;;;5072497;28;20038;-71
2021/12/23 05:50:26;;;;;;;21.05;12.13;;;-0.60;99.90;;;;;;5072250;28;20053;-71
2021/12/23 05:52:52;;;;;;;20.13;11.57;;;-0.60;99.90;;;;;;5040357;28;20057;-71
2021/12/23 05:55:19;;;;;;;18.98;11.57;;;-0.60;99.90;;;;;;5038614;28;20046;-71
2021/12/23 05:57:45;;;;;;;18.95;11.43;;;-0.60;99.90;;;;;;5074117;28;20124;-71
2021/12/23 06:00:15;;;;;;;22.42;13.02;;;-0.60;99.90;;;;;;5037861;28;20095;-71
2021/12/23 06:02:41;;;;;;;23.25;12.65;;;-0.60;99.90;;;;;;5040839;28;20060;-71
2021/12/23 06:05:08;;;;;;;26.58;13.60;;;-0.60;99.90;;;;;;5022400;28;20046;-71
2021/12/23 06:07:33;;;;;;;21.30;12.15;;;-0.60;99.90;;;;;;5039363;28;20105;-71
2021/12/23 06:09:59;;;;;;;21.70;12.52;;;-0.60;99.90;;;;;;5040407;28;20084;-71
2021/12/23 06:12:26;;;;;;;22.30;12.93;;;-0.20;99.90;;;;;;5037860;28;20795;-71
2021/12/23 06:14:52;;;;;;;23.10;12.18;;;-0.60;99.90;;;;;;5040681;28;20053;-71
2021/12/23 06:17:18;;;;;;;20.65;12.32;;;-0.60;99.90;;;;;;5037442;28;20037;-71
2021/12/23 06:19:44;;;;;;;22.92;12.60;;;-0.60;99.90;;;;;;5039982;28;20046;-71
2021/12/23 06:22:10;;;;;;;23.55;13.73;;;-0.60;99.90;;;;;;5038495;28;20121;-71
2021/12/23 06:24:36;;;;;;;22.63;12.75;;;-0.60;99.90;;;;;;5072248;28;20057;-71
2021/12/23 06:27:01;;;;;;;23.45;12.45;;;-0.50;99.90;;;;;;5041102;28;20049;-71
2021/12/23 06:29:27;;;;;;;24.05;12.73;;;-0.60;99.90;;;;;;5038043;28;20112;-72
2021/12/23 06:31:53;;;;;;;20.77;11.98;;;-0.50;99.90;;;;;;5073379;28;20049;-71
2021/12/23 06:34:18;;;;;;;21.05;12.68;;;0.40;99.90;;;;;;5038492;28;20638;-71
2021/12/23 06:36:44;;;;;;;23.17;12.93;;;-0.50;99.90;;;;;;5024103;28;20044;-71
2021/12/23 06:39:10;;;;;;;21.35;11.38;;;-0.50;99.90;;;;;;5037855;28;20425;-70
2021/12/23 06:41:36;;;;;;;23.60;11.80;;;-0.50;99.90;;;;;;5072603;28;20053;-71
2021/12/23 06:44:02;;;;;;;22.27;12.05;;;-0.50;99.90;;;;;;5055773;28;20595;-70
2021/12/23 06:46:28;;;;;;;21.58;11.50;;;-0.50;99.90;;;;;;5070524;28;20077;-71
2021/12/23 06:48:53;;;;;;;24.70;13.25;;;-0.50;99.90;;;;;;5039611;28;20045;-71
2021/12/23 06:51:19;;;;;;;19.25;10.57;;;-0.50;99.90;;;;;;5053385;28;20057;-71
2021/12/23 06:53:45;;;;;;;26.90;14.27;;;-0.40;99.90;;;;;;5039133;28;20127;-71
2021/12/23 06:56:13;;;;;;;24.88;14.07;;;-0.40;99.90;;;;;;5036783;28;20073;-71
2021/12/23 06:58:39;;;;;;;26.20;13.68;;;-0.40;99.90;;;;;;5040442;28;20052;-71
2021/12/23 07:01:05;;;;;;;28.02;14.68;;;-0.10;99.90;;;;;;5038764;28;20045;-70
2021/12/23 07:03:52;;;;;;;28.42;13.95;;;-0.20;99.90;;;;;;5037434;28;20063;-71
2021/12/23 07:06:22;;;;;;;25.50;13.83;;;-0.30;99.90;;;;;;5039484;28;20063;-71
2021/12/23 07:08:47;;;;;;;21.90;12.63;;;-0.30;99.90;;;;;;5020924;28;20076;-71
2021/12/23 07:11:13;;;;;;;21.98;12.32;;;-0.30;99.90;;;;;;5040942;28;20042;-71
2021/12/23 07:13:39;;;;;;;27.58;14.45;;;-0.30;99.90;;;;;;5070939;28;20135;-71
2021/12/23 07:16:05;;;;;;;23.27;12.13;;;0.10;99.90;;;;;;5038191;28;20048;-71
2021/12/23 07:18:30;;;;;;;25.50;14.23;;;-0.30;99.90;;;;;;5040144;28;20059;-70
2021/12/23 07:20:56;;;;;;;22.77;12.70;;;-0.30;99.90;;;;;;5069456;28;20116;-71
2021/12/23 07:23:22;;;;;;;26.38;13.38;;;-0.30;99.90;;;;;;5072411;28;20053;-70
2021/12/23 07:25:48;;;;;;;26.60;13.43;;;-0.20;99.90;;;;;;5037969;28;20053;-70
2021/12/23 07:28:14;;;;;;;25.67;12.95;;;-0.20;99.90;;;;;;5022655;28;20056;-70
2021/12/23 07:30:39;;;;;;;24.92;13.77;;;-0.20;99.90;;;;;;5038173;28;20033;-70
2021/12/23 07:33:05;;;;;;;24.23;13.48;;;-0.20;99.90;;;;;;5037108;28;20049;-70
2021/12/23 07:35:31;;;;;;;24.05;13.02;;;-0.20;99.90;;;;;;5071148;28;20046;-70
2021/12/23 07:38:00;;;;;;;28.88;14.20;;;0.00;99.90;;;;;;5070112;28;20049;-70
2021/12/23 07:40:27;;;;;;;24.38;12.25;;;-0.20;99.90;;;;;;5055855;28;20896;-70
2021/12/23 07:42:55;;;;;;;24.63;13.32;;;-0.30;99.90;;;;;;5069419;28;20049;-70
2021/12/23 07:45:25;;;;;;;24.52;13.85;;;-0.20;99.90;;;;;;5040281;28;20081;-70
2021/12/23 07:47:51;;;;;;;21.88;11.30;;;-0.30;99.90;;;;;;5036920;28;20048;-70
2021/12/23 07:50:17;;;;;;;24.20;14.00;;;-0.20;99.90;;;;;;5038500;28;20217;-70
2021/12/23 07:52:43;;;;;;;26.45;14.35;;;-0.20;99.90;;;;;;5039641;28;20052;-70
2021/12/23 07:55:09;;;;;;;28.67;13.57;;;-0.50;99.90;;;;;;5069731;28;20049;-70
2021/12/23 07:57:34;;;;;;;23.83;13.85;;;-0.20;99.90;;;;;;5037810;28;20485;-70
2021/12/23 08:00:01;;;;;;;25.15;13.48;;;-0.70;99.90;;;;;;5068831;28;20060;-70
2021/12/23 08:02:27;;;;;;;27.80;15.10;;;0.60;99.90;;;;;;5039840;28;20056;-70
2021/12/23 08:04:52;;;;;;;27.75;15.63;;;-0.20;99.90;;;;;;5069647;28;20045;-69
2021/12/23 08:07:18;;;;;;;25.70;14.60;;;-0.20;99.90;;;;;;5021171;28;20056;-70
2021/12/23 08:09:44;;;;;;;33.67;17.02;;;-0.20;99.90;;;;;;5037260;28;20056;-70
2021/12/23 08:12:10;;;;;;;27.42;15.07;;;-0.20;99.90;;;;;;5036905;28;20117;-70
2021/12/23 08:14:36;;;;;;;27.30;14.55;;;0.00;99.90;;;;;;5032703;28;20053;-69
2021/12/23 08:17:02;;;;;;;25.83;13.65;;;0.10;99.90;;;;;;5066838;28;20270;-70
2021/12/23 08:19:27;;;;;;;28.35;15.48;;;-0.20;99.90;;;;;;5019900;28;20045;-70
2021/12/23 08:21:53;;;;;;;31.05;14.75;;;-0.20;99.90;;;;;;5034622;28;20041;-70
2021/12/23 08:24:19;;;;;;;27.38;15.23;;;-0.20;99.90;;;;;;5020145;28;20053;-70
2021/12/23 08:26:51;;;;;;;29.25;15.13;;;-0.10;99.90;;;;;;5069584;28;20103;-70
2021/12/23 08:29:19;;;;;;;31.27;16.20;;;-0.20;99.90;;;;;;5066268;28;20579;-70
2021/12/23 08:31:53;;;;;;;30.95;16.42;;;-0.20;99.90;;;;;;5038070;28;20064;-70
2021/12/23 08:34:23;;;;;;;28.98;15.65;;;-0.20;99.90;;;;;;5034079;28;20051;-71
2021/12/23 08:36:51;;;;;;;38.17;18.48;;;-0.10;99.90;;;;;;5037082;28;20053;-70
2021/12/23 08:39:17;;;;;;;32.63;18.40;;;-0.10;99.90;;;;;;5035486;28;20386;-70
2021/12/23 08:41:44;;;;;;;32.33;17.27;;;-0.20;99.90;;;;;;5036960;28;20424;-70
2021/12/23 08:44:09;;;;;;;27.83;15.68;;;-0.20;99.90;;;;;;5037040;28;20052;-70
2021/12/23 08:46:36;;;;;;;33.47;17.95;;;-0.20;99.90;;;;;;5034689;28;20053;-70
2021/12/23 08:49:03;;;;;;;32.97;15.88;;;-0.20;99.90;;;;;;5070394;28;20045;-70
2021/12/23 08:51:29;;;;;;;32.53;17.10;;;-0.10;99.90;;;;;;5050992;28;20049;-69
2021/12/23 08:53:54;;;;;;;34.22;18.33;;;-1.10;99.90;;;;;;5054263;28;20056;-70
2021/12/23 08:56:20;;;;;;;32.40;17.40;;;-0.20;99.90;;;;;;5051475;28;20121;-71
2021/12/23 08:58:46;;;;;;;36.42;18.40;;;-0.20;99.90;;;;;;5069582;28;20501;-71
2021/12/23 09:01:12;;;;;;;33.97;17.35;;;-0.20;99.90;;;;;;5037797;28;20064;-72
2021/12/23 09:03:37;;;;;;;33.42;17.17;;;-0.20;99.90;;;;;;5036917;28;20049;-71
2021/12/23 09:06:04;;;;;;;38.38;18.33;;;-0.20;99.90;;;;;;5069438;28;20049;-70
2021/12/23 09:08:31;;;;;;;37.83;20.38;;;-0.20;99.90;;;;;;5067665;28;20042;-71
2021/12/23 09:10:58;;;;;;;33.92;17.05;;;0.10;99.90;;;;;;5074638;28;20069;-70
2021/12/23 09:13:27;;;;;;;41.25;20.50;;;-0.20;99.90;;;;;;5072295;28;20050;-69
2021/12/23 09:15:53;;;;;;;36.60;20.63;;;0.60;99.90;;;;;;5073345;28;20075;-70
2021/12/23 09:18:23;;;;;;;40.70;20.55;;;-0.20;99.90;;;;;;5041755;28;20045;-70
2021/12/23 09:20:50;;;;;;;42.50;21.52;;;-0.30;99.90;;;;;;5038511;28;20124;-70
2021/12/23 09:23:16;;;;;;;35.75;17.02;;;-0.40;99.90;;;;;;5074518;28;20055;-69
2021/12/23 09:25:42;;;;;;;37.13;18.80;;;0.20;99.90;;;;;;5039008;28;20057;-69
2021/12/23 09:29:18;;;;;;;37.30;19.52;;;0.40;99.90;;;;;;5039961;28;20092;-70
2021/12/23 09:33:50;;;;;;;38.60;17.50;;;0.30;99.90;;;;;;5038572;28;19925;-70
2021/12/23 09:36:17;;;;;;;36.70;17.42;;;-0.30;99.90;;;;;;5041442;28;20117;-69
2021/12/23 09:38:44;;;;;;;43.72;20.67;;;-0.30;99.90;;;;;;5021573;28;20132;-70
2021/12/23 09:41:13;;;;;;;41.55;21.52;;;0.10;99.90;;;;;;5042169;28;20140;-70
2021/12/23 09:43:41;;;;;;;44.60;23.50;;;-0.30;99.90;;;;;;5022794;28;20049;-70
2021/12/23 09:46:09;;;;;;;45.83;22.88;;;-0.30;99.90;;;;;;5038912;28;20081;-71
2021/12/23 09:48:37;;;;;;;38.67;16.98;;;-0.30;99.90;;;;;;5057183;28;20444;-70
2021/12/23 09:51:06;;;;;;;39.67;20.30;;;-0.30;99.90;;;;;;5080428;28;20041;-71
2021/12/23 09:53:33;;;;;;;42.97;24.23;;;-0.30;99.90;;;;;;5076725;28;20036;-70
2021/12/23 09:56:00;;;;;;;40.65;19.77;;;0.10;99.90;;;;;;5039708;28;20048;-70
2021/12/23 09:58:27;;;;;;;45.30;20.90;;;-0.20;99.90;;;;;;5092873;28;20049;-70
2021/12/23 10:00:53;;;;;;;46.08;19.95;;;-0.30;99.90;;;;;;5075705;28;20040;-70
2021/12/23 10:03:21;;;;;;;39.08;19.42;;;-0.20;99.90;;;;;;5092205;28;20051;-70
2021/12/23 10:05:47;;;;;;;39.67;18.58;;;-0.20;99.90;;;;;;5041684;28;20042;-70
2021/12/23 10:08:15;;;;;;;41.47;19.95;;;-0.20;99.90;;;;;;5071259;28;20596;-70
2021/12/23 10:10:56;;;;;;;41.15;20.48;;;-0.20;99.90;;;;;;5041572;28;20650;-70
2021/12/23 10:30:32;;;;;;;43.70;20.35;;;-0.20;99.90;;;;;;5050039;28;20568;-70
2021/12/23 10:38:51;;;;;;;46.42;23.23;;;-0.50;99.90;;;;;;5038404;28;20081;-70
2021/12/23 10:41:24;;;;;;;48.72;22.38;;;0.20;99.90;;;;;;5038713;28;20052;-70
2021/12/23 10:44:00;;;;;;;50.22;21.08;;;-0.10;99.90;;;;;;5039733;28;20045;-70
2021/12/23 10:46:39;;;;;;;42.25;20.15;;;-0.10;99.90;;;;;;5038516;28;20100;-70
2021/12/23 10:51:56;;;;;;;38.55;18.67;;;-0.10;99.90;;;;;;5069283;28;20369;-70
2021/12/23 11:00:19;;;;;;;44.03;21.37;;;0.20;99.90;;;;;;5038277;28;20061;-70
2021/12/23 11:02:59;;;;;;;46.33;20.38;;;0.00;99.90;;;;;;5072101;28;20053;-70
2021/12/23 11:05:30;;;;;;;48.90;21.90;;;0.00;99.90;;;;;;5039654;28;20049;-69
2021/12/23 11:08:20;;;;;;;50.33;21.70;;;0.00;99.90;;;;;;5038030;28;20053;-70
2021/12/23 11:27:33;;;;;;;45.80;21.48;;;0.00;99.90;;;;;;5039694;28;20050;-69
2021/12/23 11:38:40;;;;;;;53.05;22.02;;;0.80;99.90;;;;;;5036832;28;20053;-70
2021/12/23 11:44:01;;;;;;;47.20;21.02;;;0.00;99.90;;;;;;5038905;28;20072;-69
2021/12/23 11:46:34;;;;;;;52.63;23.30;;;0.00;99.90;;;;;;5040793;28;20122;-69
2021/12/23 11:49:02;;;;;;;50.28;23.23;;;0.00;99.90;;;;;;5048344;28;20051;-69
2021/12/23 11:51:33;;;;;;;57.47;27.35;;;0.60;99.90;;;;;;5042592;28;20053;-69
2021/12/23 11:54:03;;;;;;;48.47;23.63;;;0.00;99.90;;;;;;5062740;28;20059;-69
2021/12/23 11:56:29;;;;;;;41.05;18.63;;;0.00;99.90;;;;;;5039469;28;20989;-69
2021/12/23 11:58:58;;;;;;;60.03;27.25;;;0.00;99.90;;;;;;5048440;28;20092;-69
2021/12/23 12:01:30;;;;;;;45.95;23.33;;;0.00;99.90;;;;;;5044649;28;20060;-69
2021/12/23 12:04:00;;;;;;;45.72;23.77;;;0.10;99.90;;;;;;5043545;28;20057;-69
2021/12/23 12:06:46;;;;;;;57.38;25.00;;;0.00;99.90;;;;;;5060660;28;20136;-69
2021/12/23 12:09:19;;;;;;;55.13;25.30;;;0.00;99.90;;;;;;5039392;28;20068;-68
2021/12/23 12:12:01;;;;;;;51.10;23.58;;;0.00;99.90;;;;;;5042156;28;20073;-69
2021/12/23 12:14:36;;;;;;;49.28;24.63;;;0.20;99.90;;;;;;5065531;28;20094;-69
2021/12/23 12:17:24;;;;;;;52.53;24.20;;;0.00;99.90;;;;;;5029532;28;20619;-69
2021/12/23 12:19:59;;;;;;;52.78;26.63;;;0.10;99.90;;;;;;5038567;28;20053;-69
2021/12/23 12:23:05;;;;;;;46.08;22.77;;;0.10;99.90;;;;;;5061266;28;20046;-68
2021/12/23 12:25:44;;;;;;;55.38;24.98;;;0.10;99.90;;;;;;5039828;28;20137;-69
2021/12/23 12:28:31;;;;;;;54.20;25.25;;;0.10;99.90;;;;;;5072412;28;20049;-69
2021/12/23 12:31:00;;;;;;;56.00;22.77;;;0.10;99.90;;;;;;5058381;28;20044;-68
2021/12/23 12:33:26;;;;;;;50.17;23.85;;;0.10;99.90;;;;;;5070674;28;20103;-69
2021/12/23 12:35:58;;;;;;;43.63;23.92;;;0.10;99.90;;;;;;5064291;28;20049;-69
2021/12/23 12:38:26;;;;;;;48.85;23.67;;;0.10;99.90;;;;;;5040890;28;20107;-69
2021/12/23 12:41:02;;;;;;;53.00;25.60;;;0.20;99.90;;;;;;5068739;28;20048;-70
2021/12/23 12:44:04;;;;;;;;;;;0.20;99.90;;;;;;5072499;28;20052;-69
2021/12/23 12:46:40;;;;;;;51.38;23.25;;;0.20;99.90;;;;;;5075494;28;20377;-69
2021/12/23 12:49:14;;;;;;;52.78;23.98;;;0.20;99.90;;;;;;5067341;28;20543;-69
2021/12/23 12:51:45;;;;;;;46.45;21.05;;;0.20;99.90;;;;;;5040205;28;20054;-68
2021/12/23 12:54:17;;;;;;;47.60;22.30;;;0.20;99.90;;;;;;5069048;28;20041;-70
2021/12/23 12:56:56;;;;;;;48.35;23.42;;;0.20;99.90;;;;;;5064404;28;20080;-68
2021/12/23 12:59:28;;;;;;;52.50;25.83;;;0.20;99.90;;;;;;5034323;28;20045;-68
2021/12/23 13:01:56;;;;;;;57.45;24.40;;;0.20;99.90;;;;;;5021958;28;20064;-68
2021/12/23 13:04:34;;;;;;;55.22;24.98;;;0.20;99.90;;;;;;5073944;28;20106;-68
2021/12/23 13:07:34;;;;;;;54.10;26.13;;;0.20;99.90;;;;;;5065476;28;20081;-67
2021/12/23 13:10:20;;;;;;;52.42;25.25;;;0.20;99.90;;;;;;5045658;28;20658;-69
2021/12/23 13:12:58;;;;;;;57.00;25.85;;;0.30;99.90;;;;;;5040211;28;20084;-68
2021/12/23 13:15:30;;;;;;;50.30;24.75;;;0.30;99.90;;;;;;5079239;28;20048;-68
2021/12/23 13:18:06;;;;;;;55.22;25.00;;;0.30;99.90;;;;;;5074920;28;20053;-69
2021/12/23 13:20:43;;;;;;;51.10;25.98;;;0.30;99.90;;;;;;5070673;28;20129;-68
2021/12/23 13:23:16;;;;;;;48.30;23.13;;;0.30;99.90;;;;;;5055695;28;20053;-67
2021/12/23 13:26:04;;;;;;;49.83;23.60;;;0.30;99.90;;;;;;5070224;28;20041;-68
2021/12/23 13:28:42;;;;;;;52.45;22.67;;;0.30;99.90;;;;;;5040831;28;20126;-68
2021/12/23 13:31:18;;;;;;;57.42;26.15;;;0.30;99.90;;;;;;5076077;28;20055;-68
2021/12/23 13:33:51;;;;;;;51.10;24.63;;;0.30;99.90;;;;;;5038909;28;20048;-68
2021/12/23 13:36:28;;;;;;;55.80;23.65;;;0.30;99.90;;;;;;5038084;28;20056;-68
2021/12/23 13:39:03;;;;;;;51.83;25.02;;;0.30;99.90;;;;;;5041782;28;20068;-67
2021/12/23 13:41:32;;;;;;;71.30;25.33;;;0.30;99.90;;;;;;5044097;28;20044;-68
2021/12/23 13:44:01;;;;;;;55.90;23.45;;;0.40;99.90;;;;;;5046650;28;20052;-67
2021/12/23 13:46:32;;;;;;;50.15;23.15;;;0.30;99.90;;;;;;5034005;28;20489;-68
2021/12/23 13:49:04;;;;;;;57.42;25.33;;;0.40;99.90;;;;;;5043573;28;20489;-68